»·PEaware :: N494SP L52-L88

N494SP :: L52-L88

FLIGHT INFORMATION

Flight Status: Arrived
Operator: Privately registered:
United States
More flights under this callsign
Pilot: Arik L. (33213)
Aircraft: CESSNA 172 SKYHAWK
(C172)
More flights by this aircraft type
Origin: L52 Oceano Co
United States
Destination: L88 New Cuyama
United States
More flights between these airports :: More routes between these airports
Route: N35°2 45' W120°28 57' N35°1 94' W120°15 29' FLW
File this flight plan on PilotEdge
Remarks:
Altitude:
(Current/Filed)
7,500ft
Speed:
(Current/Filed)
110kts
Departed: 09-Jan-21 05:08 PM
Arrived: 09-Jan-21 05:44 PM
Distance/Time
Traveled:
47nm/0:36
Distance/Time
To Go:
Arrived

Flight Plot

Page will automatically refresh every two minutes.

Flight plan parsing failed; only flown route is shown


Map Options




Map Legend


Flown Route
Filed Route
Departure Airport
Arrival Airport
Navaid (VOR, NDB)
Fix

Horizontal Profiles

Position Reports

Time Latitude Longitude Heading Altitude Ground
Speed
09-Jan-21 16:40 35.099569 -120.619486 75 14ft 0kts
09-Jan-21 16:41 0.000408 0.013975 0 3ft 0kts
09-Jan-21 16:42 0.000408 0.013975 0 3ft 0kts
09-Jan-21 16:43 35.103453 -120.624778 23 14ft 0kts
09-Jan-21 16:44 35.103453 -120.624778 23 18ft 0kts
09-Jan-21 16:45 35.103453 -120.624778 23 18ft 0kts
09-Jan-21 16:46 35.103453 -120.624778 23 18ft 0kts
09-Jan-21 16:47 35.103453 -120.624778 23 18ft 0kts
09-Jan-21 16:48 35.103452 -120.624778 23 18ft 0kts
09-Jan-21 16:49 35.103452 -120.624778 23 18ft 0kts
09-Jan-21 16:50 35.103451 -120.624778 23 18ft 0kts
09-Jan-21 16:51 35.103451 -120.624778 24 18ft 0kts
09-Jan-21 16:52 35.103451 -120.624778 24 18ft 0kts
09-Jan-21 16:53 35.103450 -120.624778 24 18ft 0kts
09-Jan-21 16:54 35.103450 -120.624778 24 18ft 0kts
09-Jan-21 16:55 35.103449 -120.624778 24 18ft 0kts
09-Jan-21 16:56 35.103449 -120.624778 24 18ft 0kts
09-Jan-21 16:57 35.103448 -120.624778 24 18ft 0kts
09-Jan-21 16:58 35.103447 -120.624778 25 18ft 0kts
09-Jan-21 16:59 35.103447 -120.624778 25 18ft 0kts
09-Jan-21 17:00 35.103446 -120.624778 25 18ft 0kts
09-Jan-21 17:01 35.103445 -120.624778 25 18ft 0kts
09-Jan-21 17:02 35.102201 -120.622634 125 18ft 17kts
09-Jan-21 17:03 35.102060 -120.622395 124 18ft 0kts
09-Jan-21 17:04 35.100120 -120.620642 122 18ft 18kts
09-Jan-21 17:05 35.099500 -120.619666 63 17ft 0kts
09-Jan-21 17:06 35.099500 -120.619666 63 17ft 0kts
09-Jan-21 17:07 35.104202 -120.627102 305 178ft 65kts
09-Jan-21 17:09 35.096898 -120.616991 107 700ft 92kts
09-Jan-21 17:10 35.083534 -120.595287 129 1590ft 84kts
09-Jan-21 17:11 35.072794 -120.569828 119 2391ft 83kts
09-Jan-21 17:12 35.062397 -120.543784 112 3098ft 86kts
09-Jan-21 17:13 35.054648 -120.516062 104 3795ft 87kts
09-Jan-21 17:14 35.046391 -120.492950 108 4357ft 0kts
09-Jan-21 17:15 35.036432 -120.466220 128 4962ft 90kts
09-Jan-21 17:16 35.020893 -120.442370 110 5567ft 92kts
09-Jan-21 17:17 35.014182 -120.412063 100 6150ft 93kts
09-Jan-21 17:18 35.014230 -120.380482 95 6704ft 93kts
09-Jan-21 17:19 35.013841 -120.348685 79 7201ft 94kts
09-Jan-21 17:20 35.018475 -120.317006 73 7631ft 95kts
09-Jan-21 17:21 35.028190 -120.280020 71 7457ft 126kts
09-Jan-21 17:21 35.033968 -120.248312 91 7531ft 110kts
09-Jan-21 17:23 35.041151 -120.203947 73 7607ft 122kts
09-Jan-21 17:24 35.050637 -120.163767 73 7599ft 120kts
09-Jan-21 17:24 35.058392 -120.131209 73 7514ft 118kts
09-Jan-21 17:26 35.068882 -120.087215 73 7498ft 113kts
09-Jan-21 17:27 35.077199 -120.050011 77 7496ft 113kts
09-Jan-21 17:27 35.082203 -120.018332 79 7501ft 115kts
09-Jan-21 17:28 35.088007 -119.979839 79 7501ft 116kts
09-Jan-21 17:29 35.093498 -119.940971 81 7498ft 116kts
09-Jan-21 17:30 35.095014 -119.901840 92 7500ft 116kts
09-Jan-21 17:31 35.093256 -119.862298 93 7498ft 117kts
09-Jan-21 17:32 35.077018 -119.828535 138 6736ft 154kts
09-Jan-21 17:33 35.049365 -119.798545 139 6098ft 109kts
09-Jan-21 17:34 35.028705 -119.773060 138 6109ft 110kts
09-Jan-21 17:35 34.998040 -119.742590 142 4205ft 157kts
09-Jan-21 17:36 34.968938 -119.714465 142 3892ft 138kts
09-Jan-21 17:37 34.946804 -119.692916 142 3705ft 84kts
09-Jan-21 17:38 34.925717 -119.686206 156 3736ft 77kts
09-Jan-21 17:39 34.936573 -119.669497 22 3606ft 85kts
09-Jan-21 17:40 34.929123 -119.685761 227 2976ft 95kts
09-Jan-21 17:41 34.914694 -119.668148 54 3404ft 95kts
09-Jan-21 17:42 34.934091 -119.671224 296 2785ft 89kts
09-Jan-21 17:43 34.942108 -119.690882 298 2152ft 27kts
09-Jan-21 17:44 34.942904 -119.691162 18 2150ft 0kts
09-Jan-21 17:45 34.942904 -119.691162 18 2150ft 0kts
09-Jan-21 17:46 34.942904 -119.691162 18 2150ft 0kts
09-Jan-21 17:47 34.942904 -119.691162 18 2150ft 0kts
09-Jan-21 17:48 34.942904 -119.691162 18 2150ft 0kts
09-Jan-21 17:49 34.942904 -119.691162 18 2150ft 0kts
09-Jan-21 17:50 34.942964 -119.690894 51 2151ft 0kts
09-Jan-21 17:51 34.942964 -119.690894 51 2151ft 0kts
09-Jan-21 17:52 34.942978 -119.690845 72 2151ft 0kts
09-Jan-21 17:53 34.942701 -119.690424 214 2153ft 0kts

Navigation Log

Ident Type
Flight plan parsing failed, navigation log unavailable